LFOJLFRG

Guest
Details From LFOJ - BRICY
To LFRG - Deauville Saint Gatien
Flight Number -
Tags generated
Created
Modified
Stats Distance 104 nm / 193 km
Max Altitude 0 ft / 0 m
Waypoints 2
Social Downloads 0
Likes 0
Share VATSIM

Download

Looking for another format? Having issues loading an existing format? Contact us
Advertisement - Login to hide

Notes

Basic altitude profile: - Ascent Rate: 2500ft/min - Ascent Speed: 250kts - Cruise Altitude: 35000ft - Cruise Speed: 420kts - Descent Rate: 1500ft/min - Descent Speed: 250kts Options: - Use NATs: no - Use PACOTS: no - Use low airways: no - Use high airways: no

Route

LFOJ LFRG

ID Type Via Altitude Latitude Longitude Leg Dist Tot Dist Heading (true) Name
O LFOJ APT - 0 ft / 0 m 47.98773˚ 1.76063˚ - 0 nm - BRICY
O LFRG APT - 0 ft / 0 m 49.36530˚ 0.15432˚ 104 nm 104 nm 323° / 322° Deauville Saint Gatien

Altitude Profile

Advertisement - Login to hide

LFOJ

Details ICAO LFOJ (ORE)
Name BRICY
Region France
Timezone Europe/Paris (UTC+1.0)
Stats Elevation 412 ft / 126 m (AMSL)
Location 47.987727° 1.760625°
Runways 1
Magnetic Variation 0.464° E

METAR

LFOJ 121000Z AUTO 22007KT CAVOK 02/01 Q1012 NOSIG

Decode

TAF

TAF LFOJ 120800Z 1209/1309 22010KT CAVOK BECMG 1220/1222 OVC010 BECMG 1304/1306 20015G25KT 4000 -RA SCT008 BKN012

Decode

Departure Runways

ID Width Length Bearing (true) Bearing (mag) Surface Threshold Offset Overrun Length
07 148 ft / 45 m 7,868 ft / 2,398 m 69.26° 68.80° Asphalt 0 ft / 0 m 0 ft / 0 m
25 148 ft / 45 m 7,868 ft / 2,398 m 249.28° 248.82° Asphalt 0 ft / 0 m 0 ft / 0 m

LFRG

Details ICAO LFRG (DOL)
Name Deauville Saint Gatien
Region France
Timezone Europe/Paris (UTC+1.0)
Stats Elevation 479 ft / 146 m (AMSL)
Location 49.365296° 0.154324°
Runways 1
Magnetic Variation 0.143° W

METAR

LFRG 121000Z AUTO 23006KT CAVOK 04/02 Q1011 NOSIG

Decode

TAF

Not found

Destination Runways

ID Width Length Bearing (true) Bearing (mag) Surface Threshold Offset Overrun Length
12 148 ft / 45 m 8,344 ft / 2,543 m 117.22° 117.36° Asphalt 1,476 ft / 450 m 0 ft / 0 m
30 148 ft / 45 m 8,344 ft / 2,543 m 297.25° 297.39° Asphalt 1,378 ft / 420 m 0 ft / 0 m

Approach Navaids

Runway Type Ident Frequency Range Bearing (true) Bearing (mag) Slope Elevation
30 Localiser DV 111.55 MHz 18 nm / 33 km 297.22° 297.36° - 479 ft / 146 m (AMSL)
30 Glidescope DV 111.55 MHz 10 nm / 19 km 297.23° 297.38° 3.00° 479 ft / 146 m (AMSL)
30 DME DV 111.55 MHz 18 nm / 33 km - - - 466 ft / 142 m (AMSL)